Sulan — TFKO — position and weather

sailwx.info

Track history (hours):
 
Tides and Currents Weather Stations Pressure Air Temp Water Temp Dewpoint Dewpoint Depression Visibility Wind Speed Wind Dir Waves Ship Positions

Sulan

Last reported at 2018-Mar-14 09:37 UTC. Time now 2018-Jun-20 17:04 UTC.
Position N 66°21' W 020°08'.
Warning: this ship's position is months out of date.

Length 61 m; draft 7 m.

Type: Fishing. MMSI: 251312000.

Date/timePositionNaut miles runAvg speedWind from/ knotsBaromVisibWave heightAir tempDewpointWater temp
2018-Mar-14 09:37N 66°21' W 020°08'1 0.9
2018-Mar-14 08:39N 66°21' W 020°10'0 0.9
2018-Mar-14 08:28N 66°21' W 020°10'1 1.2
2018-Mar-14 07:56N 66°21' W 020°08'4 0.7
2018-Mar-14 01:58N 66°23' W 019°59'1 1.5
2018-Mar-14 01:22N 66°24' W 019°60'2 3.3
2018-Mar-14 00:53N 66°23' W 020°04'1 3.1
2018-Mar-14 00:31N 66°22' W 020°05'1 2.6
2018-Mar-14 00:00N 66°21' W 020°05'2 3.7
2018-Mar-13 23:30N 66°21' W 020°00'2 3.4
2018-Mar-13 23:00N 66°21' W 020°04'1 2.1
2018-Mar-13 22:30N 66°20' W 020°07'2 3.7
2018-Mar-13 22:00N 66°20' W 020°11'2 3.9
2018-Mar-13 21:30N 66°20' W 020°16'1 1.6
2018-Mar-13 21:00N 66°20' W 020°14'2 3.0
2018-Mar-13 20:30N 66°20' W 020°11'2 3.1
2018-Mar-13 20:00N 66°21' W 020°07'2 3.2
2018-Mar-13 19:30N 66°21' W 020°03'2 3.5
2018-Mar-13 19:00N 66°21' W 019°58'1 1.5
2018-Mar-13 18:30N 66°21' W 020°00'1 2.5
2018-Mar-13 18:00N 66°21' W 020°03'2 3.4
2018-Mar-13 17:30N 66°21' W 020°08'2 3.5
2018-Mar-13 17:00N 66°21' W 020°12'2 3.3
2018-Mar-13 16:30N 66°22' W 020°14'2 3.4
2018-Mar-13 16:00N 66°24' W 020°15'2 3.4
2018-Mar-13 15:30N 66°25' W 020°16'2 3.2
2018-Mar-13 15:00N 66°27' W 020°17'2 3.5
2018-Mar-13 14:30N 66°29' W 020°17'2 3.5
2018-Mar-13 14:00N 66°30' W 020°16'2 3.8
2018-Mar-13 13:30N 66°32' W 020°16'2 3.8
2018-Mar-13 13:01N 66°34' W 020°15'3 6.4
2018-Mar-13 12:30N 66°37' W 020°12'510.8
2018-Mar-13 12:00N 66°42' W 020°06'4 6.4
2018-Mar-13 11:23N 66°45' W 020°03'1 2.1
2018-Mar-13 11:00N 66°46' W 020°01'2 3.2
2018-Mar-13 10:29N 66°47' W 019°57'2 3.2
2018-Mar-13 09:58N 66°47' W 019°53'2 3.5
2018-Mar-13 09:31N 66°48' W 019°50'2 3.6
2018-Mar-13 09:00N 66°48' W 019°45'2 3.5
2018-Mar-13 08:25N 66°49' W 019°40'2 3.4
2018-Mar-13 07:57N 66°50' W 019°37'2 3.6
2018-Mar-13 07:30N 66°50' W 019°33'2 3.6
2018-Mar-13 06:52N 66°51' W 019°28'2 4.1
2018-Mar-13 06:30N 66°52' W 019°25'6 1.0
2018-Mar-13 00:13N 66°56' W 019°12'210.5
2018-Mar-13 00:00N 66°55' W 019°17'3 6.7
2018-Mar-12 23:30N 66°53' W 019°24'1 2.3
2018-Mar-12 22:58N 66°52' W 019°25'2 3.4
2018-Mar-12 22:30N 66°51' W 019°29'2 3.9
2018-Mar-12 22:00N 66°51' W 019°33'2 2.7
2018-Mar-12 21:26N 66°51' W 019°30'1 3.3
2018-Mar-12 21:00N 66°51' W 019°26'0 0.6
2018-Mar-12 20:25N 66°51' W 019°25'2 3.7
2018-Mar-12 19:58N 66°51' W 019°29'2 3.7
2018-Mar-12 19:30N 66°51' W 019°34'2 3.3
2018-Mar-12 18:59N 66°50' W 019°38'2 3.5
2018-Mar-12 18:30N 66°50' W 019°42'1 2.5
2018-Mar-12 17:59N 66°49' W 019°43'1 2.0
2018-Mar-12 17:30N 66°49' W 019°41'1 2.8
2018-Mar-12 17:01N 66°50' W 019°37'1 3.0
2018-Mar-12 16:30N 66°50' W 019°34'2 3.1
2018-Mar-12 16:00N 66°51' W 019°30'2 3.3
2018-Mar-12 15:28N 66°52' W 019°28'2 3.4
2018-Mar-12 15:00N 66°54' W 019°25'1 2.9
2018-Mar-12 14:30N 66°52' W 019°25'2 3.4
2018-Mar-12 13:56N 66°51' W 019°28'2 3.8
2018-Mar-12 13:30N 66°50' W 019°32'2 1.4
2018-Mar-12 12:15N 66°51' W 019°28'23 3.1
2018-Mar-12 04:49N 66°44' W 018°32'1 3.7
2018-Mar-12 04:29N 66°43' W 018°33'5 2.6
2018-Mar-12 02:37N 66°46' W 018°43'1 4.0
2018-Mar-12 02:16N 66°45' W 018°44'2 2.3
2018-Mar-12 01:16N 66°43' W 018°45'1 3.0
2018-Mar-12 01:00N 66°42' W 018°46'2 3.5
2018-Mar-12 00:30N 66°40' W 018°47'2 3.1
2018-Mar-12 00:00N 66°41' W 018°44'2 2.7
2018-Mar-11 23:25N 66°40' W 018°44'1 1.5
2018-Mar-11 22:58N 66°39' W 018°44'1 1.5
2018-Mar-11 22:13N 66°38' W 018°45'0 1.9
2018-Mar-11 21:57N 66°37' W 018°45'1 1.8
2018-Mar-11 21:30N 66°37' W 018°45'1 1.9
2018-Mar-11 21:00N 66°36' W 018°46'1 1.0
2018-Mar-11 20:30N 66°35' W 018°46'1 1.7
2018-Mar-11 20:00N 66°34' W 018°46'2 3.7
2018-Mar-11 19:30N 66°33' W 018°47'4 8.1
2018-Mar-11 19:00N 66°29' W 018°46'510.5
2018-Mar-11 18:30N 66°24' W 018°41'510.4
2018-Mar-11 18:00N 66°19' W 018°36'510.2
2018-Mar-11 17:30N 66°14' W 018°32'510.3
2018-Mar-11 17:00N 66°09' W 018°27'510.5
2018-Mar-11 16:30N 66°04' W 018°23'611.2
2018-Mar-11 16:01N 65°59' W 018°18'611.2
2018-Mar-11 15:30N 65°54' W 018°13'611.2
2018-Mar-11 15:00N 65°49' W 018°08'611.2
2018-Mar-11 14:30N 65°43' W 018°06'2 3.0
2018-Mar-11 13:58N 65°42' W 018°05'0 0.0
2018-Mar-11 13:28N 65°42' W 018°05'0 0.0
2018-Mar-11 12:58N 65°42' W 018°05'0 0.0
2018-Mar-11 12:28N 65°42' W 018°05'0 0.0
2018-Mar-11 11:55N 65°42' W 018°05'0 0.0
2018-Mar-11 11:25N 65°42' W 018°05'0 0.0
2018-Mar-11 10:52N 65°42' W 018°05'0 0.0
2018-Mar-11 10:28N 65°42' W 018°05'0 0.0
2018-Mar-11 09:58N 65°42' W 018°05'0 0.0
2018-Mar-11 09:28N 65°42' W 018°05'0 0.0
2018-Mar-11 08:58N 65°42' W 018°05'0 0.0
2018-Mar-11 08:28N 65°42' W 018°05'0 0.0
2018-Mar-11 07:58N 65°42' W 018°05'0 0.0
2018-Mar-11 07:19N 65°42' W 018°05'0 0.0
2018-Mar-11 06:58N 65°42' W 018°05'0 0.0
2018-Mar-11 06:25N 65°42' W 018°05'0 0.0
2018-Mar-11 05:58N 65°42' W 018°05'0 0.0
2018-Mar-11 05:22N 65°42' W 018°05'0 0.0
2018-Mar-11 04:52N 65°42' W 018°05'0 0.0
2018-Mar-11 04:28N 65°42' W 018°05'0 0.0
2018-Mar-11 03:55N 65°42' W 018°05'0 0.0
2018-Mar-11 03:28N 65°42' W 018°05'0 0.0
2018-Mar-11 02:58N 65°42' W 018°05'0 0.0
2018-Mar-11 02:28N 65°42' W 018°05'0 0.0
2018-Mar-11 01:58N 65°42' W 018°05'0 0.0
2018-Mar-11 01:28N 65°42' W 018°05'0 0.0
2018-Mar-11 00:55N 65°42' W 018°05'0 0.0
2018-Mar-11 00:28N 65°42' W 018°05'0 0.0
2018-Mar-10 23:58N 65°42' W 018°05'0 0.0
2018-Mar-10 23:28N 65°42' W 018°05'0 0.0
2018-Mar-10 22:58N 65°42' W 018°05'0 0.0
2018-Mar-10 22:28N 65°42' W 018°05'0 0.0
2018-Mar-10 21:58N 65°42' W 018°05'0 0.0
2018-Mar-10 21:28N 65°42' W 018°05'0 0.0
2018-Mar-10 20:58N 65°42' W 018°05'0 0.0
2018-Mar-10 20:28N 65°42' W 018°05'0 0.0
2018-Mar-10 19:58N 65°42' W 018°05'0 0.0
2018-Mar-10 19:25N 65°42' W 018°05'0 0.0
2018-Mar-10 18:55N 65°42' W 018°05'0 0.0
2018-Mar-10 18:25N 65°42' W 018°05'0 0.0
2018-Mar-10 17:52N 65°42' W 018°05'0 0.0
2018-Mar-10 17:25N 65°42' W 018°05'0 0.0
2018-Mar-10 16:58N 65°42' W 018°05'0 0.0
2018-Mar-10 16:25N 65°42' W 018°05'0 0.0
2018-Mar-10 15:55N 65°42' W 018°05'0 0.0
2018-Mar-10 15:28N 65°42' W 018°05'0 0.0
2018-Mar-10 14:58N 65°42' W 018°05'0 0.0
2018-Mar-10 14:25N 65°42' W 018°05'0 0.0
2018-Mar-10 13:58N 65°42' W 018°05'0 0.0
2018-Mar-10 13:28N 65°42' W 018°05'0 0.0
2018-Mar-10 12:58N 65°42' W 018°05'0 0.0
2018-Mar-10 12:25N 65°42' W 018°05'0 0.0
2018-Mar-10 11:58N 65°42' W 018°05'0 0.0
2018-Mar-10 11:16N 65°42' W 018°05'0 0.0
2018-Mar-10 10:46N 65°42' W 018°05'0 0.0
2018-Mar-10 10:28N 65°42' W 018°05'0 0.0
2018-Mar-10 09:58N 65°42' W 018°05'0 0.0
2018-Mar-10 09:28N 65°42' W 018°05'0 0.0
2018-Mar-10 08:55N 65°42' W 018°05'0 0.0
2018-Mar-10 08:28N 65°42' W 018°05'0 0.0
2018-Mar-10 07:55N 65°42' W 018°05'0 0.0
2018-Mar-10 07:28N 65°42' W 018°05'0 0.0
2018-Mar-10 06:58N 65°42' W 018°05'0 0.0
2018-Mar-10 06:25N 65°42' W 018°05'0 0.0
2018-Mar-10 05:58N 65°42' W 018°05'0 0.0
2018-Mar-10 05:22N 65°42' W 018°05'0 0.0
2018-Mar-10 04:58N 65°42' W 018°05'0 0.0
2018-Mar-10 04:28N 65°42' W 018°05'0 0.0
2018-Mar-10 03:49N 65°42' W 018°05'0 0.0
2018-Mar-10 03:28N 65°42' W 018°05'0 0.0
2018-Mar-10 02:55N 65°42' W 018°05'0 0.0
2018-Mar-10 02:25N 65°42' W 018°05'0 0.0
2018-Mar-10 01:58N 65°42' W 018°05'0 0.0
2018-Mar-10 01:25N 65°42' W 018°05'0 0.0
2018-Mar-10 00:58N 65°42' W 018°05'0 0.0
2018-Mar-10 00:25N 65°42' W 018°05'0 0.0
2018-Mar-09 23:55N 65°42' W 018°05'0 0.0
2018-Mar-09 23:28N 65°42' W 018°05'0 0.0
2018-Mar-09 22:58N 65°42' W 018°05'0 0.0
2018-Mar-09 22:28N 65°42' W 018°05'0 0.0
2018-Mar-09 21:55N 65°42' W 018°05'0 0.0
2018-Mar-09 21:28N 65°42' W 018°05'0 0.0
2018-Mar-09 20:01N 65°42' W 018°05'0 0.1
2018-Mar-09 19:58N 65°42' W 018°05'0 0.0
2018-Mar-09 19:28N 65°42' W 018°05'0 0.0
2018-Mar-09 17:01N 65°42' W 018°05'0 0.0
2018-Mar-09 16:55N 65°42' W 018°05'0 0.0
2018-Mar-09 12:28N 65°42' W 018°05'  
Track history (hours):
 
Tides and Currents Weather Stations Pressure Air Temp Water Temp Dewpoint Dewpoint Depression Visibility Wind Speed Wind Dir Waves Ship Positions

Sulan

Last reported at 2018-Mar-14 09:37 UTC. Time now 2018-Jun-20 17:04 UTC.
Position N 66°21' W 020°08'.
Warning: this ship's position is months out of date.

Length 61 m; draft 7 m.

Type: Fishing. MMSI: 251312000.

Date/timePositionNaut miles runAvg speedWind from/ knotsBaromVisibWave heightAir tempDewpointWater temp
2018-Mar-14 09:37N 66°21' W 020°08'1 0.9
2018-Mar-14 08:39N 66°21' W 020°10'0 0.9
2018-Mar-14 08:28N 66°21' W 020°10'1 1.2
2018-Mar-14 07:56N 66°21' W 020°08'4 0.7
2018-Mar-14 01:58N 66°23' W 019°59'1 1.5
2018-Mar-14 01:22N 66°24' W 019°60'2 3.3
2018-Mar-14 00:53N 66°23' W 020°04'1 3.1
2018-Mar-14 00:31N 66°22' W 020°05'1 2.6
2018-Mar-14 00:00N 66°21' W 020°05'2 3.7
2018-Mar-13 23:30N 66°21' W 020°00'2 3.4
2018-Mar-13 23:00N 66°21' W 020°04'1 2.1
2018-Mar-13 22:30N 66°20' W 020°07'2 3.7
2018-Mar-13 22:00N 66°20' W 020°11'2 3.9
2018-Mar-13 21:30N 66°20' W 020°16'1 1.6
2018-Mar-13 21:00N 66°20' W 020°14'2 3.0
2018-Mar-13 20:30N 66°20' W 020°11'2 3.1
2018-Mar-13 20:00N 66°21' W 020°07'2 3.2
2018-Mar-13 19:30N 66°21' W 020°03'2 3.5
2018-Mar-13 19:00N 66°21' W 019°58'1 1.5
2018-Mar-13 18:30N 66°21' W 020°00'1 2.5
2018-Mar-13 18:00N 66°21' W 020°03'2 3.4
2018-Mar-13 17:30N 66°21' W 020°08'2 3.5
2018-Mar-13 17:00N 66°21' W 020°12'2 3.3
2018-Mar-13 16:30N 66°22' W 020°14'2 3.4
2018-Mar-13 16:00N 66°24' W 020°15'2 3.4
2018-Mar-13 15:30N 66°25' W 020°16'2 3.2
2018-Mar-13 15:00N 66°27' W 020°17'2 3.5
2018-Mar-13 14:30N 66°29' W 020°17'2 3.5
2018-Mar-13 14:00N 66°30' W 020°16'2 3.8
2018-Mar-13 13:30N 66°32' W 020°16'2 3.8
2018-Mar-13 13:01N 66°34' W 020°15'3 6.4
2018-Mar-13 12:30N 66°37' W 020°12'510.8
2018-Mar-13 12:00N 66°42' W 020°06'4 6.4
2018-Mar-13 11:23N 66°45' W 020°03'1 2.1
2018-Mar-13 11:00N 66°46' W 020°01'2 3.2
2018-Mar-13 10:29N 66°47' W 019°57'2 3.2
2018-Mar-13 09:58N 66°47' W 019°53'2 3.5
2018-Mar-13 09:31N 66°48' W 019°50'2 3.6
2018-Mar-13 09:00N 66°48' W 019°45'2 3.5
2018-Mar-13 08:25N 66°49' W 019°40'2 3.4
2018-Mar-13 07:57N 66°50' W 019°37'2 3.6
2018-Mar-13 07:30N 66°50' W 019°33'2 3.6
2018-Mar-13 06:52N 66°51' W 019°28'2 4.1
2018-Mar-13 06:30N 66°52' W 019°25'6 1.0
2018-Mar-13 00:13N 66°56' W 019°12'210.5
2018-Mar-13 00:00N 66°55' W 019°17'3 6.7
2018-Mar-12 23:30N 66°53' W 019°24'1 2.3
2018-Mar-12 22:58N 66°52' W 019°25'2 3.4
2018-Mar-12 22:30N 66°51' W 019°29'2 3.9
2018-Mar-12 22:00N 66°51' W 019°33'2 2.7
2018-Mar-12 21:26N 66°51' W 019°30'1 3.3
2018-Mar-12 21:00N 66°51' W 019°26'0 0.6
2018-Mar-12 20:25N 66°51' W 019°25'2 3.7
2018-Mar-12 19:58N 66°51' W 019°29'2 3.7
2018-Mar-12 19:30N 66°51' W 019°34'2 3.3
2018-Mar-12 18:59N 66°50' W 019°38'2 3.5
2018-Mar-12 18:30N 66°50' W 019°42'1 2.5
2018-Mar-12 17:59N 66°49' W 019°43'1 2.0
2018-Mar-12 17:30N 66°49' W 019°41'1 2.8
2018-Mar-12 17:01N 66°50' W 019°37'1 3.0
2018-Mar-12 16:30N 66°50' W 019°34'2 3.1
2018-Mar-12 16:00N 66°51' W 019°30'2 3.3
2018-Mar-12 15:28N 66°52' W 019°28'2 3.4
2018-Mar-12 15:00N 66°54' W 019°25'1 2.9
2018-Mar-12 14:30N 66°52' W 019°25'2 3.4
2018-Mar-12 13:56N 66°51' W 019°28'2 3.8
2018-Mar-12 13:30N 66°50' W 019°32'2 1.4
2018-Mar-12 12:15N 66°51' W 019°28'23 3.1
2018-Mar-12 04:49N 66°44' W 018°32'1 3.7
2018-Mar-12 04:29N 66°43' W 018°33'5 2.6
2018-Mar-12 02:37N 66°46' W 018°43'1 4.0
2018-Mar-12 02:16N 66°45' W 018°44'2 2.3
2018-Mar-12 01:16N 66°43' W 018°45'1 3.0
2018-Mar-12 01:00N 66°42' W 018°46'2 3.5
2018-Mar-12 00:30N 66°40' W 018°47'2 3.1
2018-Mar-12 00:00N 66°41' W 018°44'2 2.7
2018-Mar-11 23:25N 66°40' W 018°44'1 1.5
2018-Mar-11 22:58N 66°39' W 018°44'1 1.5
2018-Mar-11 22:13N 66°38' W 018°45'0 1.9
2018-Mar-11 21:57N 66°37' W 018°45'1 1.8
2018-Mar-11 21:30N 66°37' W 018°45'1 1.9
2018-Mar-11 21:00N 66°36' W 018°46'1 1.0
2018-Mar-11 20:30N 66°35' W 018°46'1 1.7
2018-Mar-11 20:00N 66°34' W 018°46'2 3.7
2018-Mar-11 19:30N 66°33' W 018°47'4 8.1
2018-Mar-11 19:00N 66°29' W 018°46'510.5
2018-Mar-11 18:30N 66°24' W 018°41'510.4
2018-Mar-11 18:00N 66°19' W 018°36'510.2
2018-Mar-11 17:30N 66°14' W 018°32'510.3
2018-Mar-11 17:00N 66°09' W 018°27'510.5
2018-Mar-11 16:30N 66°04' W 018°23'611.2
2018-Mar-11 16:01N 65°59' W 018°18'611.2
2018-Mar-11 15:30N 65°54' W 018°13'611.2
2018-Mar-11 15:00N 65°49' W 018°08'611.2
2018-Mar-11 14:30N 65°43' W 018°06'2 3.0
2018-Mar-11 13:58N 65°42' W 018°05'0 0.0
2018-Mar-11 13:28N 65°42' W 018°05'0 0.0
2018-Mar-11 12:58N 65°42' W 018°05'0 0.0
2018-Mar-11 12:28N 65°42' W 018°05'0 0.0
2018-Mar-11 11:55N 65°42' W 018°05'0 0.0
2018-Mar-11 11:25N 65°42' W 018°05'0 0.0
2018-Mar-11 10:52N 65°42' W 018°05'0 0.0
2018-Mar-11 10:28N 65°42' W 018°05'0 0.0
2018-Mar-11 09:58N 65°42' W 018°05'0 0.0
2018-Mar-11 09:28N 65°42' W 018°05'0 0.0
2018-Mar-11 08:58N 65°42' W 018°05'0 0.0
2018-Mar-11 08:28N 65°42' W 018°05'0 0.0
2018-Mar-11 07:58N 65°42' W 018°05'0 0.0
2018-Mar-11 07:19N 65°42' W 018°05'0 0.0
2018-Mar-11 06:58N 65°42' W 018°05'0 0.0
2018-Mar-11 06:25N 65°42' W 018°05'0 0.0
2018-Mar-11 05:58N 65°42' W 018°05'0 0.0
2018-Mar-11 05:22N 65°42' W 018°05'0 0.0
2018-Mar-11 04:52N 65°42' W 018°05'0 0.0
2018-Mar-11 04:28N 65°42' W 018°05'0 0.0
2018-Mar-11 03:55N 65°42' W 018°05'0 0.0
2018-Mar-11 03:28N 65°42' W 018°05'0 0.0
2018-Mar-11 02:58N 65°42' W 018°05'0 0.0
2018-Mar-11 02:28N 65°42' W 018°05'0 0.0
2018-Mar-11 01:58N 65°42' W 018°05'0 0.0
2018-Mar-11 01:28N 65°42' W 018°05'0 0.0
2018-Mar-11 00:55N 65°42' W 018°05'0 0.0
2018-Mar-11 00:28N 65°42' W 018°05'0 0.0
2018-Mar-10 23:58N 65°42' W 018°05'0 0.0
2018-Mar-10 23:28N 65°42' W 018°05'0 0.0
2018-Mar-10 22:58N 65°42' W 018°05'0 0.0
2018-Mar-10 22:28N 65°42' W 018°05'0 0.0
2018-Mar-10 21:58N 65°42' W 018°05'0 0.0
2018-Mar-10 21:28N 65°42' W 018°05'0 0.0
2018-Mar-10 20:58N 65°42' W 018°05'0 0.0
2018-Mar-10 20:28N 65°42' W 018°05'0 0.0
2018-Mar-10 19:58N 65°42' W 018°05'0 0.0
2018-Mar-10 19:25N 65°42' W 018°05'0 0.0
2018-Mar-10 18:55N 65°42' W 018°05'0 0.0
2018-Mar-10 18:25N 65°42' W 018°05'0 0.0
2018-Mar-10 17:52N 65°42' W 018°05'0 0.0
2018-Mar-10 17:25N 65°42' W 018°05'0 0.0
2018-Mar-10 16:58N 65°42' W 018°05'0 0.0
2018-Mar-10 16:25N 65°42' W 018°05'0 0.0
2018-Mar-10 15:55N 65°42' W 018°05'0 0.0
2018-Mar-10 15:28N 65°42' W 018°05'0 0.0
2018-Mar-10 14:58N 65°42' W 018°05'0 0.0
2018-Mar-10 14:25N 65°42' W 018°05'0 0.0
2018-Mar-10 13:58N 65°42' W 018°05'0 0.0
2018-Mar-10 13:28N 65°42' W 018°05'0 0.0
2018-Mar-10 12:58N 65°42' W 018°05'0 0.0
2018-Mar-10 12:25N 65°42' W 018°05'0 0.0
2018-Mar-10 11:58N 65°42' W 018°05'0 0.0
2018-Mar-10 11:16N 65°42' W 018°05'0 0.0
2018-Mar-10 10:46N 65°42' W 018°05'0 0.0
2018-Mar-10 10:28N 65°42' W 018°05'0 0.0
2018-Mar-10 09:58N 65°42' W 018°05'0 0.0
2018-Mar-10 09:28N 65°42' W 018°05'0 0.0
2018-Mar-10 08:55N 65°42' W 018°05'0 0.0
2018-Mar-10 08:28N 65°42' W 018°05'0 0.0
2018-Mar-10 07:55N 65°42' W 018°05'0 0.0
2018-Mar-10 07:28N 65°42' W 018°05'0 0.0
2018-Mar-10 06:58N 65°42' W 018°05'0 0.0
2018-Mar-10 06:25N 65°42' W 018°05'0 0.0
2018-Mar-10 05:58N 65°42' W 018°05'0 0.0
2018-Mar-10 05:22N 65°42' W 018°05'0 0.0
2018-Mar-10 04:58N 65°42' W 018°05'0 0.0
2018-Mar-10 04:28N 65°42' W 018°05'0 0.0
2018-Mar-10 03:49N 65°42' W 018°05'0 0.0
2018-Mar-10 03:28N 65°42' W 018°05'0 0.0
2018-Mar-10 02:55N 65°42' W 018°05'0 0.0
2018-Mar-10 02:25N 65°42' W 018°05'0 0.0
2018-Mar-10 01:58N 65°42' W 018°05'0 0.0
2018-Mar-10 01:25N 65°42' W 018°05'0 0.0
2018-Mar-10 00:58N 65°42' W 018°05'0 0.0
2018-Mar-10 00:25N 65°42' W 018°05'0 0.0
2018-Mar-09 23:55N 65°42' W 018°05'0 0.0
2018-Mar-09 23:28N 65°42' W 018°05'0 0.0
2018-Mar-09 22:58N 65°42' W 018°05'0 0.0
2018-Mar-09 22:28N 65°42' W 018°05'0 0.0
2018-Mar-09 21:55N 65°42' W 018°05'0 0.0
2018-Mar-09 21:28N 65°42' W 018°05'0 0.0
2018-Mar-09 20:01N 65°42' W 018°05'0 0.1
2018-Mar-09 19:58N 65°42' W 018°05'0 0.0
2018-Mar-09 19:28N 65°42' W 018°05'0 0.0
2018-Mar-09 17:01N 65°42' W 018°05'0 0.0
2018-Mar-09 16:55N 65°42' W 018°05'0 0.0
2018-Mar-09 12:28N 65°42' W 018°05'  

Dump ship's entire track history